sensor_id;sensor_type;location;lat;lon;timestamp;P1;durP1;ratioP1;P2;durP2;ratioP2
68989;SDS011;56046;47.270;11.368;2023-02-01T00:01:21;4.73;;;1.90;;
68989;SDS011;56046;47.270;11.368;2023-02-01T00:03:46;4.80;;;1.90;;
68989;SDS011;56046;47.270;11.368;2023-02-01T00:06:11;4.87;;;2.17;;
68989;SDS011;56046;47.270;11.368;2023-02-01T00:08:37;7.60;;;2.37;;
68989;SDS011;56046;47.270;11.368;2023-02-01T00:11:03;5.17;;;2.13;;
68989;SDS011;56046;47.270;11.368;2023-02-01T00:13:30;6.22;;;2.05;;
68989;SDS011;56046;47.270;11.368;2023-02-01T00:16:01;5.50;;;1.90;;
68989;SDS011;56046;47.270;11.368;2023-02-01T00:18:27;6.73;;;2.27;;
68989;SDS011;56046;47.270;11.368;2023-02-01T00:20:52;6.93;;;2.30;;
68989;SDS011;56046;47.270;11.368;2023-02-01T00:23:17;6.37;;;2.30;;
68989;SDS011;56046;47.270;11.368;2023-02-01T00:25:42;7.00;;;2.73;;
68989;SDS011;56046;47.270;11.368;2023-02-01T00:28:08;8.97;;;2.90;;
68989;SDS011;56046;47.270;11.368;2023-02-01T00:30:33;6.63;;;2.40;;
68989;SDS011;56046;47.270;11.368;2023-02-01T00:32:58;6.13;;;1.60;;
68989;SDS011;56046;47.270;11.368;2023-02-01T00:35:24;3.95;;;1.35;;
68989;SDS011;56046;47.270;11.368;2023-02-01T00:37:49;5.28;;;1.40;;
68989;SDS011;56046;47.270;11.368;2023-02-01T00:40:14;3.10;;;1.30;;
68989;SDS011;56046;47.270;11.368;2023-02-01T00:42:39;3.55;;;1.08;;
68989;SDS011;56046;47.270;11.368;2023-02-01T00:45:05;4.10;;;1.13;;
68989;SDS011;56046;47.270;11.368;2023-02-01T00:47:30;2.80;;;1.00;;
68989;SDS011;56046;47.270;11.368;2023-02-01T00:49:55;4.33;;;1.50;;
68989;SDS011;56046;47.270;11.368;2023-02-01T00:52:21;7.10;;;1.77;;
68989;SDS011;56046;47.270;11.368;2023-02-01T00:54:46;7.77;;;2.20;;
68989;SDS011;56046;47.270;11.368;2023-02-01T00:57:11;6.17;;;1.80;;
68989;SDS011;56046;47.270;11.368;2023-02-01T00:59:36;4.83;;;1.30;;
68989;SDS011;56046;47.270;11.368;2023-02-01T01:02:02;2.90;;;1.13;;
68989;SDS011;56046;47.270;11.368;2023-02-01T01:04:27;2.77;;;1.00;;
68989;SDS011;56046;47.270;11.368;2023-02-01T01:06:52;3.47;;;1.00;;
68989;SDS011;56046;47.270;11.368;2023-02-01T01:09:17;1.70;;;0.70;;
68989;SDS011;56046;47.270;11.368;2023-02-01T01:11:43;3.13;;;0.90;;
68989;SDS011;56046;47.270;11.368;2023-02-01T01:14:08;3.20;;;1.00;;
68989;SDS011;56046;47.270;11.368;2023-02-01T01:16:34;4.43;;;1.73;;
68989;SDS011;56046;47.270;11.368;2023-02-01T01:18:59;3.13;;;0.90;;
68989;SDS011;56046;47.270;11.368;2023-02-01T01:21:25;2.93;;;0.80;;
68989;SDS011;56046;47.270;11.368;2023-02-01T01:23:51;2.67;;;0.70;;
68989;SDS011;56046;47.270;11.368;2023-02-01T01:26:17;2.47;;;1.00;;
68989;SDS011;56046;47.270;11.368;2023-02-01T01:28:43;2.25;;;0.88;;
68989;SDS011;56046;47.270;11.368;2023-02-01T01:31:09;2.43;;;0.93;;
68989;SDS011;56046;47.270;11.368;2023-02-01T01:33:35;1.75;;;0.70;;
68989;SDS011;56046;47.270;11.368;2023-02-01T01:36:00;2.93;;;0.50;;
68989;SDS011;56046;47.270;11.368;2023-02-01T01:38:25;2.13;;;0.88;;
68989;SDS011;56046;47.270;11.368;2023-02-01T01:40:51;1.90;;;0.50;;
68989;SDS011;56046;47.270;11.368;2023-02-01T01:43:17;3.30;;;0.70;;
68989;SDS011;56046;47.270;11.368;2023-02-01T01:45:42;2.30;;;0.73;;
68989;SDS011;56046;47.270;11.368;2023-02-01T01:48:13;3.00;;;0.82;;
68989;SDS011;56046;47.270;11.368;2023-02-01T01:50:44;5.78;;;1.73;;
68989;SDS011;56046;47.270;11.368;2023-02-01T01:53:13;10.93;;;2.23;;
68989;SDS011;56046;47.270;11.368;2023-02-01T01:55:40;3.40;;;1.13;;
68989;SDS011;56046;47.270;11.368;2023-02-01T01:58:08;2.92;;;0.50;;
68989;SDS011;56046;47.270;11.368;2023-02-01T02:00:35;2.00;;;0.60;;
68989;SDS011;56046;47.270;11.368;2023-02-01T02:03:09;3.87;;;0.90;;
68989;SDS011;56046;47.270;11.368;2023-02-01T02:05:36;3.05;;;0.90;;
68989;SDS011;56046;47.270;11.368;2023-02-01T02:08:02;5.17;;;1.00;;
68989;SDS011;56046;47.270;11.368;2023-02-01T02:10:27;4.93;;;1.58;;
68989;SDS011;56046;47.270;11.368;2023-02-01T02:13:11;6.80;;;2.22;;
68989;SDS011;56046;47.270;11.368;2023-02-01T02:15:37;6.35;;;2.10;;
68989;SDS011;56046;47.270;11.368;2023-02-01T02:18:15;6.70;;;2.60;;
68989;SDS011;56046;47.270;11.368;2023-02-01T02:23:35;1.40;;;0.70;;
68989;SDS011;56046;47.270;11.368;2023-02-01T02:44:15;1.65;;;0.52;;
68989;SDS011;56046;47.270;11.368;2023-02-01T02:47:02;1.63;;;0.40;;
68989;SDS011;56046;47.270;11.368;2023-02-01T02:49:51;1.13;;;0.53;;
68989;SDS011;56046;47.270;11.368;2023-02-01T02:52:38;2.78;;;0.70;;
68989;SDS011;56046;47.270;11.368;2023-02-01T02:55:25;2.58;;;0.90;;
68989;SDS011;56046;47.270;11.368;2023-02-01T02:57:52;3.38;;;0.82;;
68989;SDS011;56046;47.270;11.368;2023-02-01T03:00:36;4.35;;;1.20;;
68989;SDS011;56046;47.270;11.368;2023-02-01T03:03:20;2.03;;;0.70;;
68989;SDS011;56046;47.270;11.368;2023-02-01T03:06:07;1.20;;;0.50;;
68989;SDS011;56046;47.270;11.368;2023-02-01T03:08:36;1.05;;;0.40;;
68989;SDS011;56046;47.270;11.368;2023-02-01T03:11:12;1.67;;;0.47;;
68989;SDS011;56046;47.270;11.368;2023-02-01T03:13:44;3.13;;;0.90;;
68989;SDS011;56046;47.270;11.368;2023-02-01T03:21:08;6.82;;;1.83;;
68989;SDS011;56046;47.270;11.368;2023-02-01T03:23:34;3.28;;;1.42;;
68989;SDS011;56046;47.270;11.368;2023-02-01T03:26:01;3.35;;;0.90;;
68989;SDS011;56046;47.270;11.368;2023-02-01T03:28:27;4.93;;;1.00;;
68989;SDS011;56046;47.270;11.368;2023-02-01T03:30:53;4.13;;;0.90;;
68989;SDS011;56046;47.270;11.368;2023-02-01T03:33:20;2.05;;;0.80;;
68989;SDS011;56046;47.270;11.368;2023-02-01T03:43:36;4.80;;;1.50;;
68989;SDS011;56046;47.270;11.368;2023-02-01T03:46:05;7.80;;;2.15;;
68989;SDS011;56046;47.270;11.368;2023-02-01T03:48:34;7.00;;;2.10;;
68989;SDS011;56046;47.270;11.368;2023-02-01T03:51:00;7.23;;;2.00;;
68989;SDS011;56046;47.270;11.368;2023-02-01T03:53:28;7.53;;;2.28;;
68989;SDS011;56046;47.270;11.368;2023-02-01T03:55:53;2.08;;;0.70;;
68989;SDS011;56046;47.270;11.368;2023-02-01T03:58:20;3.43;;;0.67;;
68989;SDS011;56046;47.270;11.368;2023-02-01T04:00:46;5.32;;;1.10;;
68989;SDS011;56046;47.270;11.368;2023-02-01T04:03:14;3.40;;;1.05;;
68989;SDS011;56046;47.270;11.368;2023-02-01T04:05:40;1.37;;;0.40;;
68989;SDS011;56046;47.270;11.368;2023-02-01T04:08:05;2.23;;;0.60;;
68989;SDS011;56046;47.270;11.368;2023-02-01T04:10:30;5.70;;;1.97;;
68989;SDS011;56046;47.270;11.368;2023-02-01T04:12:55;7.43;;;2.23;;
68989;SDS011;56046;47.270;11.368;2023-02-01T04:15:21;5.77;;;1.60;;
68989;SDS011;56046;47.270;11.368;2023-02-01T04:17:46;7.90;;;2.10;;
68989;SDS011;56046;47.270;11.368;2023-02-01T04:20:11;5.00;;;1.30;;
68989;SDS011;56046;47.270;11.368;2023-02-01T04:22:36;5.03;;;1.40;;
68989;SDS011;56046;47.270;11.368;2023-02-01T04:25:02;1.97;;;0.90;;
68989;SDS011;56046;47.270;11.368;2023-02-01T04:27:28;1.67;;;0.50;;
68989;SDS011;56046;47.270;11.368;2023-02-01T04:29:53;1.40;;;0.50;;
68989;SDS011;56046;47.270;11.368;2023-02-01T04:32:18;2.67;;;0.67;;
68989;SDS011;56046;47.270;11.368;2023-02-01T04:34:44;1.90;;;0.70;;
68989;SDS011;56046;47.270;11.368;2023-02-01T04:37:10;2.67;;;1.10;;
68989;SDS011;56046;47.270;11.368;2023-02-01T04:39:35;3.47;;;1.07;;
68989;SDS011;56046;47.270;11.368;2023-02-01T04:42:00;3.93;;;1.00;;
68989;SDS011;56046;47.270;11.368;2023-02-01T04:44:26;3.23;;;1.13;;
68989;SDS011;56046;47.270;11.368;2023-02-01T04:46:51;5.60;;;1.60;;
68989;SDS011;56046;47.270;11.368;2023-02-01T04:49:16;2.63;;;0.60;;
68989;SDS011;56046;47.270;11.368;2023-02-01T04:51:42;2.53;;;0.50;;
68989;SDS011;56046;47.270;11.368;2023-02-01T04:54:07;3.17;;;0.70;;
68989;SDS011;56046;47.270;11.368;2023-02-01T04:56:33;1.80;;;0.60;;
68989;SDS011;56046;47.270;11.368;2023-02-01T04:58:59;1.63;;;0.40;;
68989;SDS011;56046;47.270;11.368;2023-02-01T05:01:25;2.27;;;0.63;;
68989;SDS011;56046;47.270;11.368;2023-02-01T05:03:50;0.70;;;0.30;;
68989;SDS011;56046;47.270;11.368;2023-02-01T05:06:16;3.03;;;0.63;;
68989;SDS011;56046;47.270;11.368;2023-02-01T05:08:41;2.57;;;0.73;;
68989;SDS011;56046;47.270;11.368;2023-02-01T05:11:07;4.03;;;1.17;;
68989;SDS011;56046;47.270;11.368;2023-02-01T05:13:52;5.35;;;1.30;;
68989;SDS011;56046;47.270;11.368;2023-02-01T05:16:17;2.67;;;0.70;;
68989;SDS011;56046;47.270;11.368;2023-02-01T05:18:42;4.13;;;1.37;;
68989;SDS011;56046;47.270;11.368;2023-02-01T05:21:08;5.83;;;2.00;;
68989;SDS011;56046;47.270;11.368;2023-02-01T05:23:33;5.93;;;1.87;;
68989;SDS011;56046;47.270;11.368;2023-02-01T05:26:18;5.68;;;2.38;;
68989;SDS011;56046;47.270;11.368;2023-02-01T05:28:43;7.13;;;1.90;;
68989;SDS011;56046;47.270;11.368;2023-02-01T05:31:09;6.77;;;2.40;;
68989;SDS011;56046;47.270;11.368;2023-02-01T05:33:35;6.55;;;2.25;;
68989;SDS011;56046;47.270;11.368;2023-02-01T05:36:00;7.03;;;2.77;;
68989;SDS011;56046;47.270;11.368;2023-02-01T05:38:25;9.40;;;3.60;;
68989;SDS011;56046;47.270;11.368;2023-02-01T05:40:50;11.33;;;5.87;;
68989;SDS011;56046;47.270;11.368;2023-02-01T05:43:16;11.70;;;5.17;;
68989;SDS011;56046;47.270;11.368;2023-02-01T05:45:41;9.53;;;4.40;;
68989;SDS011;56046;47.270;11.368;2023-02-01T05:48:06;11.30;;;4.00;;
68989;SDS011;56046;47.270;11.368;2023-02-01T05:50:32;8.40;;;3.00;;
68989;SDS011;56046;47.270;11.368;2023-02-01T05:52:57;6.67;;;2.77;;
68989;SDS011;56046;47.270;11.368;2023-02-01T05:55:22;6.23;;;2.50;;
68989;SDS011;56046;47.270;11.368;2023-02-01T05:57:47;7.83;;;2.20;;
68989;SDS011;56046;47.270;11.368;2023-02-01T06:00:13;7.33;;;2.80;;
68989;SDS011;56046;47.270;11.368;2023-02-01T06:02:38;7.20;;;2.53;;
68989;SDS011;56046;47.270;11.368;2023-02-01T06:05:03;5.97;;;2.43;;
68989;SDS011;56046;47.270;11.368;2023-02-01T06:07:29;4.55;;;1.58;;
68989;SDS011;56046;47.270;11.368;2023-02-01T06:09:55;1.13;;;0.50;;
68989;SDS011;56046;47.270;11.368;2023-02-01T06:12:20;3.67;;;0.70;;
68989;SDS011;56046;47.270;11.368;2023-02-01T06:14:45;1.53;;;0.60;;
68989;SDS011;56046;47.270;11.368;2023-02-01T06:17:10;3.40;;;0.90;;
68989;SDS011;56046;47.270;11.368;2023-02-01T06:19:36;2.50;;;0.83;;
68989;SDS011;56046;47.270;11.368;2023-02-01T06:22:01;2.13;;;0.90;;
68989;SDS011;56046;47.270;11.368;2023-02-01T06:24:26;2.90;;;0.87;;
68989;SDS011;56046;47.270;11.368;2023-02-01T06:26:51;2.37;;;0.90;;
68989;SDS011;56046;47.270;11.368;2023-02-01T06:29:17;3.13;;;0.73;;
68989;SDS011;56046;47.270;11.368;2023-02-01T06:31:42;3.43;;;1.03;;
68989;SDS011;56046;47.270;11.368;2023-02-01T06:34:07;4.70;;;1.20;;
68989;SDS011;56046;47.270;11.368;2023-02-01T06:36:33;3.10;;;0.98;;
68989;SDS011;56046;47.270;11.368;2023-02-01T06:38:58;3.27;;;0.60;;
68989;SDS011;56046;47.270;11.368;2023-02-01T06:41:24;1.60;;;0.40;;
68989;SDS011;56046;47.270;11.368;2023-02-01T06:43:50;3.53;;;1.02;;
68989;SDS011;56046;47.270;11.368;2023-02-01T06:46:15;2.17;;;0.80;;
68989;SDS011;56046;47.270;11.368;2023-02-01T06:48:41;2.37;;;0.80;;
68989;SDS011;56046;47.270;11.368;2023-02-01T06:51:14;1.47;;;0.60;;
68989;SDS011;56046;47.270;11.368;2023-02-01T06:53:41;1.83;;;0.52;;
68989;SDS011;56046;47.270;11.368;2023-02-01T06:56:06;4.40;;;1.30;;
68989;SDS011;56046;47.270;11.368;2023-02-01T06:58:32;2.67;;;1.30;;
68989;SDS011;56046;47.270;11.368;2023-02-01T07:00:57;3.70;;;1.10;;
68989;SDS011;56046;47.270;11.368;2023-02-01T07:03:23;3.65;;;0.90;;
68989;SDS011;56046;47.270;11.368;2023-02-01T07:05:48;2.35;;;1.08;;
68989;SDS011;56046;47.270;11.368;2023-02-01T07:08:13;2.87;;;0.77;;
68989;SDS011;56046;47.270;11.368;2023-02-01T07:10:39;3.63;;;1.07;;
68989;SDS011;56046;47.270;11.368;2023-02-01T07:13:04;2.80;;;1.03;;
68989;SDS011;56046;47.270;11.368;2023-02-01T07:15:29;2.23;;;0.90;;
68989;SDS011;56046;47.270;11.368;2023-02-01T07:17:55;2.30;;;1.00;;
68989;SDS011;56046;47.270;11.368;2023-02-01T07:20:20;3.70;;;1.00;;
68989;SDS011;56046;47.270;11.368;2023-02-01T07:22:45;3.53;;;1.03;;
68989;SDS011;56046;47.270;11.368;2023-02-01T07:25:11;7.20;;;2.33;;
68989;SDS011;56046;47.270;11.368;2023-02-01T07:27:36;6.70;;;2.10;;
68989;SDS011;56046;47.270;11.368;2023-02-01T07:30:02;7.63;;;2.40;;
68989;SDS011;56046;47.270;11.368;2023-02-01T07:32:28;7.18;;;2.15;;
68989;SDS011;56046;47.270;11.368;2023-02-01T07:34:53;6.25;;;2.80;;
68989;SDS011;56046;47.270;11.368;2023-02-01T07:37:18;7.03;;;3.23;;
68989;SDS011;56046;47.270;11.368;2023-02-01T07:39:44;9.93;;;3.33;;
68989;SDS011;56046;47.270;11.368;2023-02-01T07:42:09;10.23;;;3.50;;
68989;SDS011;56046;47.270;11.368;2023-02-01T07:44:34;7.87;;;3.37;;
68989;SDS011;56046;47.270;11.368;2023-02-01T07:46:59;7.17;;;2.80;;
68989;SDS011;56046;47.270;11.368;2023-02-01T07:49:25;8.03;;;3.20;;
68989;SDS011;56046;47.270;11.368;2023-02-01T07:51:50;7.63;;;2.57;;
68989;SDS011;56046;47.270;11.368;2023-02-01T07:54:15;9.73;;;3.37;;
68989;SDS011;56046;47.270;11.368;2023-02-01T07:56:41;10.23;;;3.60;;
68989;SDS011;56046;47.270;11.368;2023-02-01T07:59:06;12.00;;;3.40;;
68989;SDS011;56046;47.270;11.368;2023-02-01T08:01:32;9.18;;;3.90;;
68989;SDS011;56046;47.270;11.368;2023-02-01T08:03:59;6.67;;;2.97;;
68989;SDS011;56046;47.270;11.368;2023-02-01T08:06:25;10.65;;;5.00;;
68989;SDS011;56046;47.270;11.368;2023-02-01T08:08:51;11.05;;;5.25;;
68989;SDS011;56046;47.270;11.368;2023-02-01T08:11:17;11.68;;;5.20;;
68989;SDS011;56046;47.270;11.368;2023-02-01T08:13:42;10.47;;;5.27;;
68989;SDS011;56046;47.270;11.368;2023-02-01T08:16:08;13.20;;;5.70;;
68989;SDS011;56046;47.270;11.368;2023-02-01T08:18:34;11.52;;;4.65;;
68989;SDS011;56046;47.270;11.368;2023-02-01T08:21:07;14.55;;;4.90;;
68989;SDS011;56046;47.270;11.368;2023-02-01T08:23:33;11.98;;;5.40;;
68989;SDS011;56046;47.270;11.368;2023-02-01T08:26:12;11.87;;;5.17;;
68989;SDS011;56046;47.270;11.368;2023-02-01T08:28:38;11.07;;;5.30;;
68989;SDS011;56046;47.270;11.368;2023-02-01T08:31:08;11.43;;;5.38;;
68989;SDS011;56046;47.270;11.368;2023-02-01T08:33:34;11.57;;;5.53;;
68989;SDS011;56046;47.270;11.368;2023-02-01T08:36:01;11.60;;;5.13;;
68989;SDS011;56046;47.270;11.368;2023-02-01T08:38:26;14.50;;;5.93;;
68989;SDS011;56046;47.270;11.368;2023-02-01T08:40:52;14.20;;;5.60;;
68989;SDS011;56046;47.270;11.368;2023-02-01T08:43:18;13.20;;;5.97;;
68989;SDS011;56046;47.270;11.368;2023-02-01T08:45:43;12.45;;;5.65;;
68989;SDS011;56046;47.270;11.368;2023-02-01T08:48:08;15.63;;;5.90;;
68989;SDS011;56046;47.270;11.368;2023-02-01T08:50:34;13.83;;;5.73;;
68989;SDS011;56046;47.270;11.368;2023-02-01T08:52:59;13.50;;;6.10;;
68989;SDS011;56046;47.270;11.368;2023-02-01T08:55:24;12.43;;;5.23;;
68989;SDS011;56046;47.270;11.368;2023-02-01T08:57:50;11.73;;;5.50;;
68989;SDS011;56046;47.270;11.368;2023-02-01T09:00:16;12.00;;;5.77;;
68989;SDS011;56046;47.270;11.368;2023-02-01T09:02:41;19.60;;;6.88;;
68989;SDS011;56046;47.270;11.368;2023-02-01T09:05:07;17.67;;;4.80;;
68989;SDS011;56046;47.270;11.368;2023-02-01T09:07:32;29.25;;;9.00;;
68989;SDS011;56046;47.270;11.368;2023-02-01T09:09:58;32.78;;;9.05;;
68989;SDS011;56046;47.270;11.368;2023-02-01T09:12:26;24.60;;;7.75;;
68989;SDS011;56046;47.270;11.368;2023-02-01T09:14:51;17.02;;;6.45;;
68989;SDS011;56046;47.270;11.368;2023-02-01T09:17:17;8.70;;;4.03;;
68989;SDS011;56046;47.270;11.368;2023-02-01T09:19:42;10.93;;;3.80;;
68989;SDS011;56046;47.270;11.368;2023-02-01T09:22:07;8.53;;;2.63;;
68989;SDS011;56046;47.270;11.368;2023-02-01T09:24:32;6.23;;;2.70;;
68989;SDS011;56046;47.270;11.368;2023-02-01T09:26:58;9.30;;;3.40;;
68989;SDS011;56046;47.270;11.368;2023-02-01T09:29:23;9.80;;;3.40;;
68989;SDS011;56046;47.270;11.368;2023-02-01T09:31:48;9.70;;;3.63;;
68989;SDS011;56046;47.270;11.368;2023-02-01T09:34:14;13.90;;;5.10;;
68989;SDS011;56046;47.270;11.368;2023-02-01T09:36:39;11.25;;;4.00;;
68989;SDS011;56046;47.270;11.368;2023-02-01T09:39:04;11.88;;;3.92;;
68989;SDS011;56046;47.270;11.368;2023-02-01T09:46:40;8.57;;;3.70;;
68989;SDS011;56046;47.270;11.368;2023-02-01T09:49:09;10.55;;;3.85;;
68989;SDS011;56046;47.270;11.368;2023-02-01T09:51:39;9.35;;;4.00;;
68989;SDS011;56046;47.270;11.368;2023-02-01T09:56:41;12.45;;;4.60;;
68989;SDS011;56046;47.270;11.368;2023-02-01T10:01:53;11.80;;;4.95;;
68989;SDS011;56046;47.270;11.368;2023-02-01T10:04:18;11.55;;;5.32;;
68989;SDS011;56046;47.270;11.368;2023-02-01T10:19:20;13.15;;;5.32;;
68989;SDS011;56046;47.270;11.368;2023-02-01T10:21:51;10.00;;;4.80;;
68989;SDS011;56046;47.270;11.368;2023-02-01T10:26:57;14.23;;;5.28;;
68989;SDS011;56046;47.270;11.368;2023-02-01T10:29:25;14.60;;;6.47;;
68989;SDS011;56046;47.270;11.368;2023-02-01T10:31:54;12.05;;;5.82;;
68989;SDS011;56046;47.270;11.368;2023-02-01T10:34:27;13.47;;;5.20;;
68989;SDS011;56046;47.270;11.368;2023-02-01T10:39:17;11.13;;;5.87;;
68989;SDS011;56046;47.270;11.368;2023-02-01T10:41:44;11.93;;;5.90;;
68989;SDS011;56046;47.270;11.368;2023-02-01T10:44:20;13.30;;;6.60;;
68989;SDS011;56046;47.270;11.368;2023-02-01T10:46:47;13.60;;;6.60;;
68989;SDS011;56046;47.270;11.368;2023-02-01T10:49:32;17.90;;;6.67;;
68989;SDS011;56046;47.270;11.368;2023-02-01T10:54:33;15.70;;;5.60;;
68989;SDS011;56046;47.270;11.368;2023-02-01T10:56:59;18.35;;;5.50;;
68989;SDS011;56046;47.270;11.368;2023-02-01T10:59:25;14.52;;;5.97;;
68989;SDS011;56046;47.270;11.368;2023-02-01T11:01:58;11.88;;;5.32;;
68989;SDS011;56046;47.270;11.368;2023-02-01T11:04:24;17.40;;;5.93;;
68989;SDS011;56046;47.270;11.368;2023-02-01T11:06:52;16.92;;;7.10;;
68989;SDS011;56046;47.270;11.368;2023-02-01T11:09:22;15.02;;;6.00;;
68989;SDS011;56046;47.270;11.368;2023-02-01T11:16:52;17.70;;;6.10;;
68989;SDS011;56046;47.270;11.368;2023-02-01T11:19:18;20.42;;;6.03;;
68989;SDS011;56046;47.270;11.368;2023-02-01T11:21:44;14.75;;;5.93;;
68989;SDS011;56046;47.270;11.368;2023-02-01T11:24:45;12.38;;;5.68;;
68989;SDS011;56046;47.270;11.368;2023-02-01T11:27:05;15.00;;;6.15;;
68989;SDS011;56046;47.270;11.368;2023-02-01T11:29:41;16.80;;;6.68;;
68989;SDS011;56046;47.270;11.368;2023-02-01T11:32:07;10.88;;;5.20;;
68989;SDS011;56046;47.270;11.368;2023-02-01T11:34:55;14.17;;;5.63;;
68989;SDS011;56046;47.270;11.368;2023-02-01T11:37:26;14.32;;;5.25;;
68989;SDS011;56046;47.270;11.368;2023-02-01T11:39:59;12.93;;;4.97;;
68989;SDS011;56046;47.270;11.368;2023-02-01T11:42:25;14.52;;;5.55;;
68989;SDS011;56046;47.270;11.368;2023-02-01T11:44:50;13.87;;;6.40;;
68989;SDS011;56046;47.270;11.368;2023-02-01T11:49:53;20.50;;;6.67;;
68989;SDS011;56046;47.270;11.368;2023-02-01T12:05:32;13.87;;;4.17;;
68989;SDS011;56046;47.270;11.368;2023-02-01T12:23:14;6.28;;;1.98;;
68989;SDS011;56046;47.270;11.368;2023-02-01T12:41:10;0.70;;;0.60;;
68989;SDS011;56046;47.270;11.368;2023-02-01T12:43:42;3.17;;;1.23;;
68989;SDS011;56046;47.270;11.368;2023-02-01T12:46:31;7.00;;;3.10;;
68989;SDS011;56046;47.270;11.368;2023-02-01T12:49:00;4.50;;;1.10;;
68989;SDS011;56046;47.270;11.368;2023-02-01T12:51:28;1.00;;;0.60;;
68989;SDS011;56046;47.270;11.368;2023-02-01T12:54:02;6.07;;;1.90;;
68989;SDS011;56046;47.270;11.368;2023-02-01T12:59:05;1.85;;;0.75;;
68989;SDS011;56046;47.270;11.368;2023-02-01T13:01:36;10.38;;;3.40;;
68989;SDS011;56046;47.270;11.368;2023-02-01T13:11:28;2.22;;;0.80;;
68989;SDS011;56046;47.270;11.368;2023-02-01T13:16:24;3.87;;;1.60;;
68989;SDS011;56046;47.270;11.368;2023-02-01T13:18:56;2.90;;;0.68;;
68989;SDS011;56046;47.270;11.368;2023-02-01T13:21:25;6.55;;;0.70;;
68989;SDS011;56046;47.270;11.368;2023-02-01T13:23:52;1.92;;;0.70;;
68989;SDS011;56046;47.270;11.368;2023-02-01T13:26:17;3.93;;;0.90;;
68989;SDS011;56046;47.270;11.368;2023-02-01T13:28:47;1.03;;;0.40;;
68989;SDS011;56046;47.270;11.368;2023-02-01T13:36:10;2.07;;;0.60;;
68989;SDS011;56046;47.270;11.368;2023-02-01T13:43:52;0.90;;;0.60;;
68989;SDS011;56046;47.270;11.368;2023-02-01T13:46:19;0.90;;;0.60;;
68989;SDS011;56046;47.270;11.368;2023-02-01T13:48:55;1.25;;;0.70;;
68989;SDS011;56046;47.270;11.368;2023-02-01T13:51:56;1.10;;;0.60;;
68989;SDS011;56046;47.270;11.368;2023-02-01T13:54:33;0.80;;;0.50;;
68989;SDS011;56046;47.270;11.368;2023-02-01T13:57:00;1.63;;;0.50;;
68989;SDS011;56046;47.270;11.368;2023-02-01T14:04:50;2.40;;;0.60;;
68989;SDS011;56046;47.270;11.368;2023-02-01T14:07:20;1.10;;;0.80;;
68989;SDS011;56046;47.270;11.368;2023-02-01T14:09:45;1.77;;;0.80;;
68989;SDS011;56046;47.270;11.368;2023-02-01T14:15:14;2.55;;;0.80;;
68989;SDS011;56046;47.270;11.368;2023-02-01T14:17:40;2.43;;;0.77;;
68989;SDS011;56046;47.270;11.368;2023-02-01T14:22:49;1.50;;;0.52;;
68989;SDS011;56046;47.270;11.368;2023-02-01T14:25:18;2.50;;;1.53;;
68989;SDS011;56046;47.270;11.368;2023-02-01T14:27:43;3.10;;;0.70;;
68989;SDS011;56046;47.270;11.368;2023-02-01T14:30:14;0.70;;;0.50;;
68989;SDS011;56046;47.270;11.368;2023-02-01T14:32:40;0.50;;;0.40;;
68989;SDS011;56046;47.270;11.368;2023-02-01T14:35:12;0.80;;;0.60;;
68989;SDS011;56046;47.270;11.368;2023-02-01T14:37:41;1.13;;;0.70;;
68989;SDS011;56046;47.270;11.368;2023-02-01T14:47:44;0.68;;;0.60;;
68989;SDS011;56046;47.270;11.368;2023-02-01T14:50:13;2.20;;;0.90;;
68989;SDS011;56046;47.270;11.368;2023-02-01T14:52:42;1.02;;;0.60;;
68989;SDS011;56046;47.270;11.368;2023-02-01T14:55:20;0.60;;;0.40;;
68989;SDS011;56046;47.270;11.368;2023-02-01T14:57:49;0.75;;;0.50;;
68989;SDS011;56046;47.270;11.368;2023-02-01T15:02:47;0.80;;;0.47;;
68989;SDS011;56046;47.270;11.368;2023-02-01T15:05:49;5.15;;;2.20;;
68989;SDS011;56046;47.270;11.368;2023-02-01T15:08:38;9.45;;;3.25;;
68989;SDS011;56046;47.270;11.368;2023-02-01T15:10:57;2.25;;;0.95;;
68989;SDS011;56046;47.270;11.368;2023-02-01T15:13:25;1.88;;;0.60;;
68989;SDS011;56046;47.270;11.368;2023-02-01T15:16:00;2.57;;;0.73;;
68989;SDS011;56046;47.270;11.368;2023-02-01T15:18:25;3.63;;;1.30;;
68989;SDS011;56046;47.270;11.368;2023-02-01T15:20:56;1.70;;;0.90;;
68989;SDS011;56046;47.270;11.368;2023-02-01T15:23:21;0.60;;;0.40;;
68989;SDS011;56046;47.270;11.368;2023-02-01T15:25:46;0.67;;;0.40;;
68989;SDS011;56046;47.270;11.368;2023-02-01T15:28:13;2.95;;;1.05;;
68989;SDS011;56046;47.270;11.368;2023-02-01T15:30:38;1.73;;;0.60;;
68989;SDS011;56046;47.270;11.368;2023-02-01T15:33:13;3.10;;;1.00;;
68989;SDS011;56046;47.270;11.368;2023-02-01T15:35:43;0.60;;;0.30;;
68989;SDS011;56046;47.270;11.368;2023-02-01T15:40:56;1.55;;;0.70;;
68989;SDS011;56046;47.270;11.368;2023-02-01T15:43:22;2.92;;;1.52;;
68989;SDS011;56046;47.270;11.368;2023-02-01T15:45:48;0.90;;;0.43;;
68989;SDS011;56046;47.270;11.368;2023-02-01T15:48:18;4.28;;;1.67;;
68989;SDS011;56046;47.270;11.368;2023-02-01T15:50:45;2.80;;;1.30;;
68989;SDS011;56046;47.270;11.368;2023-02-01T15:53:13;2.57;;;0.90;;
68989;SDS011;56046;47.270;11.368;2023-02-01T15:55:41;2.22;;;0.80;;
68989;SDS011;56046;47.270;11.368;2023-02-01T15:58:08;0.77;;;0.40;;
68989;SDS011;56046;47.270;11.368;2023-02-01T16:00:47;1.10;;;0.60;;
68989;SDS011;56046;47.270;11.368;2023-02-01T16:03:24;1.15;;;0.75;;
68989;SDS011;56046;47.270;11.368;2023-02-01T16:05:58;2.03;;;0.70;;
68989;SDS011;56046;47.270;11.368;2023-02-01T16:08:24;1.10;;;0.52;;
68989;SDS011;56046;47.270;11.368;2023-02-01T16:10:51;10.73;;;2.53;;
68989;SDS011;56046;47.270;11.368;2023-02-01T16:13:17;1.98;;;0.63;;
68989;SDS011;56046;47.270;11.368;2023-02-01T16:15:43;1.00;;;0.60;;
68989;SDS011;56046;47.270;11.368;2023-02-01T16:18:08;1.70;;;0.43;;
68989;SDS011;56046;47.270;11.368;2023-02-01T16:20:35;1.08;;;0.70;;
68989;SDS011;56046;47.270;11.368;2023-02-01T16:23:01;1.77;;;0.70;;
68989;SDS011;56046;47.270;11.368;2023-02-01T16:25:26;1.50;;;0.50;;
68989;SDS011;56046;47.270;11.368;2023-02-01T16:27:51;1.07;;;0.40;;
68989;SDS011;56046;47.270;11.368;2023-02-01T16:30:17;0.87;;;0.50;;
68989;SDS011;56046;47.270;11.368;2023-02-01T16:32:48;1.42;;;0.50;;
68989;SDS011;56046;47.270;11.368;2023-02-01T16:35:23;2.30;;;0.80;;
68989;SDS011;56046;47.270;11.368;2023-02-01T16:37:48;0.90;;;0.52;;
68989;SDS011;56046;47.270;11.368;2023-02-01T16:40:14;0.60;;;0.50;;
68989;SDS011;56046;47.270;11.368;2023-02-01T16:42:40;0.80;;;0.50;;
68989;SDS011;56046;47.270;11.368;2023-02-01T16:45:06;1.63;;;0.70;;
68989;SDS011;56046;47.270;11.368;2023-02-01T16:47:32;2.72;;;0.65;;
68989;SDS011;56046;47.270;11.368;2023-02-01T16:49:57;0.60;;;0.50;;
68989;SDS011;56046;47.270;11.368;2023-02-01T16:52:24;1.13;;;0.70;;
68989;SDS011;56046;47.270;11.368;2023-02-01T16:54:50;2.08;;;0.63;;
68989;SDS011;56046;47.270;11.368;2023-02-01T16:57:16;1.37;;;0.70;;
68989;SDS011;56046;47.270;11.368;2023-02-01T16:59:42;1.55;;;0.63;;
68989;SDS011;56046;47.270;11.368;2023-02-01T17:02:10;4.93;;;1.73;;
68989;SDS011;56046;47.270;11.368;2023-02-01T17:04:36;1.23;;;0.70;;
68989;SDS011;56046;47.270;11.368;2023-02-01T17:07:01;2.20;;;0.80;;
68989;SDS011;56046;47.270;11.368;2023-02-01T17:09:34;2.55;;;0.90;;
68989;SDS011;56046;47.270;11.368;2023-02-01T17:12:00;1.63;;;0.63;;
68989;SDS011;56046;47.270;11.368;2023-02-01T17:14:26;0.87;;;0.50;;
68989;SDS011;56046;47.270;11.368;2023-02-01T17:16:51;1.73;;;0.60;;